Time;durP1;ratioP1;P1;durP2;ratioP2;P2;SDS_P1;SDS_P2;PMS_P1;PMS_P2;Temp;Humidity;BMP_temperature;BMP_pressure;BME280_temperature;BME280_humidity;BME280_pressure;Samples;Min_cycle;Max_cycle;Signal;HPM_P1;HPM_P2
2023/07/29 00:00:39;;;;;;;1.60;1.50;;;;;;;;;;5032854;28;20481;-74
2023/07/29 00:03:05;;;;;;;2.25;1.60;;;;;;;;;;5032035;28;20060;-74
2023/07/29 00:05:30;;;;;;;1.90;1.67;;;;;;;;;;5032205;28;20067;-75
2023/07/29 00:07:56;;;;;;;2.03;1.33;;;;;;;;;;5033210;28;20030;-75
2023/07/29 00:10:21;;;;;;;1.75;1.65;;;;;;;;;;5031901;28;20036;-75
2023/07/29 00:12:47;;;;;;;1.75;1.65;;;;;;;;;;5033060;28;20052;-76
2023/07/29 00:15:13;;;;;;;2.22;1.80;;;;;;;;;;5031879;28;20022;-74
2023/07/29 00:17:39;;;;;;;3.33;1.83;;;;;;;;;;5033151;28;20072;-74
2023/07/29 00:20:06;;;;;;;2.60;1.90;;;;;;;;;;5031500;28;20033;-75
2023/07/29 00:22:31;;;;;;;1.88;1.77;;;;;;;;;;5031419;28;20029;-75
2023/07/29 00:24:59;;;;;;;1.95;1.60;;;;;;;;;;5033057;28;20383;-74
2023/07/29 00:27:25;;;;;;;3.53;1.35;;;;;;;;;;5031476;28;20034;-74
2023/07/29 00:29:51;;;;;;;2.92;1.83;;;;;;;;;;5033080;28;20120;-76
2023/07/29 00:32:17;;;;;;;2.85;1.80;;;;;;;;;;5033419;28;20096;-74
2023/07/29 00:34:43;;;;;;;1.60;1.50;;;;;;;;;;5033221;28;20049;-75
2023/07/29 00:37:08;;;;;;;2.78;1.88;;;;;;;;;;5032215;28;20152;-74
2023/07/29 00:39:34;;;;;;;1.83;1.70;;;;;;;;;;5030840;28;20040;-74
2023/07/29 00:41:59;;;;;;;1.88;1.38;;;;;;;;;;5030442;28;20032;-74
2023/07/29 00:44:25;;;;;;;1.95;1.60;;;;;;;;;;5032329;28;20052;-74
2023/07/29 00:46:52;;;;;;;6.18;1.77;;;;;;;;;;5030944;28;20563;-75
2023/07/29 00:49:18;;;;;;;2.80;1.40;;;;;;;;;;5031755;28;20045;-75
2023/07/29 00:51:44;;;;;;;1.67;1.58;;;;;;;;;;5031617;28;20025;-75
2023/07/29 00:54:10;;;;;;;2.20;1.45;;;;;;;;;;5031830;28;20440;-75
2023/07/29 00:56:35;;;;;;;1.83;1.45;;;;;;;;;;5032444;28;20642;-75
2023/07/29 00:59:01;;;;;;;2.65;1.90;;;;;;;;;;5031992;28;20108;-75
2023/07/29 01:01:31;;;;;;;1.80;1.65;;;;;;;;;;5030791;28;20481;-75
2023/07/29 01:03:57;;;;;;;2.22;1.35;;;;;;;;;;5030147;28;20442;-74
2023/07/29 01:06:22;;;;;;;1.52;1.42;;;;;;;;;;5030454;28;20055;-74
2023/07/29 01:09:00;;;;;;;1.90;1.55;;;;;;;;;;5031650;28;20022;-74
2023/07/29 01:11:40;;;;;;;1.83;1.50;;;;;;;;;;5029359;28;20087;-73
2023/07/29 01:14:28;;;;;;;1.63;1.47;;;;;;;;;;5029931;28;20553;-74
2023/07/29 01:16:59;;;;;;;2.35;1.70;;;;;;;;;;5031439;28;20022;-74
2023/07/29 01:19:53;;;;;;;2.17;1.65;;;;;;;;;;5030181;28;20029;-75
2023/07/29 01:22:21;;;;;;;3.33;1.63;;;;;;;;;;5031885;28;20171;-75
2023/07/29 01:24:46;;;;;;;2.60;1.73;;;;;;;;;;5030002;28;20028;-75
2023/07/29 01:27:12;;;;;;;2.40;1.70;;;;;;;;;;5031450;28;20618;-75
2023/07/29 01:29:38;;;;;;;2.72;1.85;;;;;;;;;;5024932;28;20053;-74
2023/07/29 01:32:11;;;;;;;1.38;1.27;;;;;;;;;;5013582;28;20033;-74
2023/07/29 01:34:47;;;;;;;1.92;1.70;;;;;;;;;;5013533;28;20033;-74
2023/07/29 01:37:20;;;;;;;2.20;1.90;;;;;;;;;;5031290;28;20061;-79
2023/07/29 01:39:47;;;;;;;1.70;1.60;;;;;;;;;;5033668;28;20057;-82
2023/07/29 01:42:13;;;;;;;1.90;1.70;;;;;;;;;;5019192;28;20112;-80
2023/07/29 01:44:39;;;;;;;1.50;1.40;;;;;;;;;;5033123;28;20025;-83
2023/07/29 01:47:05;;;;;;;2.65;1.40;;;;;;;;;;5016459;28;20511;-82
2023/07/29 01:49:30;;;;;;;4.53;1.67;;;;;;;;;;5035600;28;20033;-81
2023/07/29 01:51:56;;;;;;;3.08;1.60;;;;;;;;;;5047954;28;20121;-80
2023/07/29 01:54:21;;;;;;;1.92;1.60;;;;;;;;;;5034615;28;20033;-79
2023/07/29 01:56:47;;;;;;;1.92;1.70;;;;;;;;;;5049719;28;20035;-81
2023/07/29 01:59:16;;;;;;;1.45;1.35;;;;;;;;;;5023091;28;20520;-82
2023/07/29 02:01:42;;;;;;;1.85;1.70;;;;;;;;;;5037622;28;20056;-81
2023/07/29 02:04:08;;;;;;;2.00;1.50;;;;;;;;;;5019553;28;20047;-82
2023/07/29 02:06:33;;;;;;;4.70;1.67;;;;;;;;;;5032574;28;20638;-81
2023/07/29 02:08:59;;;;;;;1.67;1.58;;;;;;;;;;5032638;28;20022;-81
2023/07/29 02:11:27;;;;;;;2.28;1.25;;;;;;;;;;5032006;28;20088;-82
2023/07/29 02:13:54;;;;;;;1.70;1.55;;;;;;;;;;5031715;28;20026;-78
2023/07/29 02:16:20;;;;;;;1.75;1.65;;;;;;;;;;5031876;28;20032;-82
2023/07/29 02:18:46;;;;;;;1.83;1.70;;;;;;;;;;5013342;28;20025;-81
2023/07/29 02:21:11;;;;;;;4.20;1.70;;;;;;;;;;5030916;28;20040;-79
2023/07/29 02:23:37;;;;;;;1.70;1.60;;;;;;;;;;5031112;28;20489;-81
2023/07/29 02:26:02;;;;;;;2.63;1.30;;;;;;;;;;5030550;28;20100;-82
2023/07/29 02:28:28;;;;;;;2.47;1.52;;;;;;;;;;5019895;28;20053;-81
2023/07/29 02:31:23;;;;;;;2.40;1.60;;;;;;;;;;5028595;28;20041;-75
2023/07/29 02:33:49;;;;;;;1.20;1.10;;;;;;;;;;5029265;28;20037;-82
2023/07/29 02:36:15;;;;;;;1.35;1.25;;;;;;;;;;5029237;28;20033;-81
2023/07/29 02:38:41;;;;;;;2.30;1.38;;;;;;;;;;5030246;28;20167;-81
2023/07/29 02:41:09;;;;;;;1.50;1.40;;;;;;;;;;5029605;28;20026;-80
2023/07/29 02:43:35;;;;;;;2.47;1.30;;;;;;;;;;5030437;28;20029;-79
2023/07/29 02:46:02;;;;;;;2.13;1.60;;;;;;;;;;5031756;28;20017;-80
2023/07/29 02:48:28;;;;;;;2.67;1.30;;;;;;;;;;5032828;28;20032;-81
2023/07/29 02:50:54;;;;;;;1.88;1.50;;;;;;;;;;5032615;28;20112;-81
2023/07/29 02:53:19;;;;;;;1.52;1.23;;;;;;;;;;5029675;28;20128;-77
2023/07/29 02:55:45;;;;;;;2.22;1.30;;;;;;;;;;5028686;28;20042;-78
2023/07/29 02:58:10;;;;;;;2.45;2.03;;;;;;;;;;5028985;28;20458;-77
2023/07/29 03:00:36;;;;;;;2.33;1.38;;;;;;;;;;5031084;28;20450;-78
2023/07/29 03:03:05;;;;;;;2.40;1.50;;;;;;;;;;5037765;28;20052;-78
2023/07/29 03:05:30;;;;;;;2.20;1.30;;;;;;;;;;5032355;28;20060;-78
2023/07/29 03:07:57;;;;;;;0.80;0.80;;;;;;;;;;5029531;28;20052;-76
2023/07/29 03:10:23;;;;;;;1.38;1.27;;;;;;;;;;5029087;28;20474;-77
2023/07/29 03:12:48;;;;;;;1.35;1.10;;;;;;;;;;5029500;28;20079;-77
2023/07/29 03:15:14;;;;;;;1.13;1.10;;;;;;;;;;5030626;28;20033;-76
2023/07/29 03:17:40;;;;;;;1.70;1.60;;;;;;;;;;5029188;28;20533;-77
2023/07/29 03:20:06;;;;;;;1.63;1.52;;;;;;;;;;5029144;28;20367;-77
2023/07/29 03:22:31;;;;;;;1.60;1.38;;;;;;;;;;5029113;28;20056;-78
2023/07/29 03:24:57;;;;;;;2.10;1.52;;;;;;;;;;5030072;28;20478;-78
2023/07/29 03:27:23;;;;;;;1.33;1.20;;;;;;;;;;5029108;28;20029;-77
2023/07/29 03:29:48;;;;;;;2.45;1.35;;;;;;;;;;4996018;28;20043;-77
2023/07/29 03:32:14;;;;;;;1.13;1.10;;;;;;;;;;5030158;28;20057;-77
2023/07/29 03:34:40;;;;;;;1.30;1.20;;;;;;;;;;5030886;28;20021;-77
2023/07/29 03:37:06;;;;;;;2.92;1.90;;;;;;;;;;5033823;28;20120;-78
2023/07/29 03:39:32;;;;;;;2.45;1.40;;;;;;;;;;4999538;28;20129;-76
2023/07/29 03:41:57;;;;;;;1.55;1.40;;;;;;;;;;5015724;28;20026;-76
2023/07/29 03:44:23;;;;;;;3.00;1.48;;;;;;;;;;5034940;28;20116;-76
2023/07/29 03:46:49;;;;;;;1.23;1.10;;;;;;;;;;5016252;28;20382;-77
2023/07/29 03:49:14;;;;;;;1.50;1.30;;;;;;;;;;5033686;28;20488;-76
2023/07/29 03:51:40;;;;;;;1.48;1.27;;;;;;;;;;5033719;28;20029;-78
2023/07/29 03:54:06;;;;;;;1.20;1.10;;;;;;;;;;5033720;28;20108;-78
2023/07/29 03:56:31;;;;;;;1.50;1.20;;;;;;;;;;5016363;28;20025;-78
2023/07/29 03:59:04;;;;;;;2.67;2.08;;;;;;;;;;5037791;28;20104;-78
2023/07/29 04:01:30;;;;;;;1.33;1.23;;;;;;;;;;5036081;28;20029;-78
2023/07/29 04:03:55;;;;;;;2.42;1.45;;;;;;;;;;5035772;28;20024;-78
2023/07/29 04:06:21;;;;;;;2.83;1.38;;;;;;;;;;5019411;28;20025;-78
2023/07/29 04:08:47;;;;;;;2.58;1.20;;;;;;;;;;5023697;28;20009;-78
2023/07/29 04:11:12;;;;;;;2.08;1.30;;;;;;;;;;5046076;28;20029;-77
2023/07/29 04:13:38;;;;;;;2.60;1.58;;;;;;;;;;5046977;28;20448;-78
2023/07/29 04:16:04;;;;;;;2.95;1.35;;;;;;;;;;5048615;28;20025;-78
2023/07/29 04:18:30;;;;;;;1.60;1.50;;;;;;;;;;5039155;28;20079;-77
2023/07/29 04:20:55;;;;;;;3.33;1.65;;;;;;;;;;5033697;28;20365;-76
2023/07/29 04:23:21;;;;;;;1.73;1.40;;;;;;;;;;5032882;28;20025;-77
2023/07/29 04:25:46;;;;;;;3.00;1.77;;;;;;;;;;5032829;28;20048;-77
2023/07/29 04:28:12;;;;;;;1.85;1.42;;;;;;;;;;5032885;28;20474;-78
2023/07/29 04:30:37;;;;;;;3.38;1.42;;;;;;;;;;5014952;28;20036;-76
2023/07/29 04:33:03;;;;;;;5.28;1.42;;;;;;;;;;5033189;28;20689;-78
2023/07/29 04:35:29;;;;;;;2.60;1.58;;;;;;;;;;5015515;28;20025;-77
2023/07/29 04:37:54;;;;;;;1.35;1.10;;;;;;;;;;5015770;28;20029;-78
2023/07/29 04:40:20;;;;;;;2.30;1.08;;;;;;;;;;5015074;28;20021;-78
2023/07/29 04:42:46;;;;;;;1.52;1.13;;;;;;;;;;5032863;28;20493;-79
2023/07/29 04:45:12;;;;;;;1.20;1.10;;;;;;;;;;5032454;28;20472;-78
2023/07/29 04:47:37;;;;;;;2.45;1.40;;;;;;;;;;5032305;28;20045;-77
2023/07/29 04:50:03;;;;;;;1.30;1.20;;;;;;;;;;5014982;28;20066;-78
2023/07/29 04:52:29;;;;;;;1.33;1.17;;;;;;;;;;5015576;28;20454;-78
2023/07/29 04:54:54;;;;;;;1.23;1.00;;;;;;;;;;5032854;28;20029;-76
2023/07/29 04:57:20;;;;;;;2.65;1.52;;;;;;;;;;5032972;28;20031;-76
2023/07/29 04:59:45;;;;;;;1.70;1.40;;;;;;;;;;5033875;28;20110;-77
2023/07/29 05:02:11;;;;;;;3.30;1.38;;;;;;;;;;5015842;28;20068;-76
2023/07/29 05:04:36;;;;;;;4.30;1.70;;;;;;;;;;5033503;28;20440;-77
2023/07/29 05:07:02;;;;;;;2.15;1.33;;;;;;;;;;5034610;28;20063;-76
2023/07/29 05:09:28;;;;;;;2.78;1.70;;;;;;;;;;5018756;28;20025;-76
2023/07/29 05:11:54;;;;;;;3.22;1.63;;;;;;;;;;5035523;28;20120;-76
2023/07/29 05:14:21;;;;;;;1.77;1.48;;;;;;;;;;5017043;28;20470;-77
2023/07/29 05:16:47;;;;;;;1.23;1.13;;;;;;;;;;5001217;28;20060;-76
2023/07/29 05:19:13;;;;;;;1.30;1.20;;;;;;;;;;5033149;28;20080;-76
2023/07/29 05:21:39;;;;;;;4.75;1.52;;;;;;;;;;5032291;28;20486;-75
2023/07/29 05:24:04;;;;;;;2.95;1.30;;;;;;;;;;5014638;28;20029;-75
2023/07/29 05:26:30;;;;;;;3.00;1.40;;;;;;;;;;5014153;28;20036;-75
2023/07/29 05:28:56;;;;;;;3.35;1.70;;;;;;;;;;5013727;28;20070;-75
2023/07/29 05:31:23;;;;;;;3.05;1.23;;;;;;;;;;5014791;28;20560;-77
2023/07/29 05:33:48;;;;;;;1.92;1.50;;;;;;;;;;5032811;28;20033;-80
2023/07/29 05:36:15;;;;;;;5.47;1.88;;;;;;;;;;5015518;28;20091;-77
2023/07/29 05:38:41;;;;;;;1.98;1.67;;;;;;;;;;5014894;28;20049;-77
2023/07/29 05:41:07;;;;;;;3.40;1.63;;;;;;;;;;5031803;28;20025;-78
2023/07/29 05:43:32;;;;;;;1.48;1.30;;;;;;;;;;5013608;28;20036;-78
2023/07/29 05:45:58;;;;;;;1.52;1.40;;;;;;;;;;5013121;28;20417;-77
2023/07/29 05:48:23;;;;;;;1.92;1.05;;;;;;;;;;5031088;28;20025;-77
2023/07/29 05:50:50;;;;;;;1.85;1.63;;;;;;;;;;5031802;28;20060;-77
2023/07/29 05:53:15;;;;;;;3.22;1.40;;;;;;;;;;5033673;28;20033;-77
2023/07/29 05:55:41;;;;;;;3.95;1.38;;;;;;;;;;5020159;28;20025;-77
2023/07/29 05:58:06;;;;;;;1.92;1.30;;;;;;;;;;5013288;28;20080;-77
2023/07/29 06:00:32;;;;;;;1.60;1.25;;;;;;;;;;5013463;28;20022;-78
2023/07/29 06:02:57;;;;;;;2.63;1.17;;;;;;;;;;5030929;28;20112;-77
2023/07/29 06:05:24;;;;;;;6.10;4.00;;;;;;;;;;5014784;28;20033;-77
2023/07/29 06:07:50;;;;;;;2.05;1.13;;;;;;;;;;5003260;28;20028;-77
2023/07/29 06:10:19;;;;;;;1.40;0.93;;;;;;;;;;5037653;28;20104;-78
2023/07/29 06:12:49;;;;;;;1.77;1.08;;;;;;;;;;5020555;28;20436;-78
2023/07/29 06:15:22;;;;;;;1.10;1.00;;;;;;;;;;5037995;28;20021;-78
2023/07/29 06:17:49;;;;;;;1.80;1.08;;;;;;;;;;5038555;28;20049;-78
2023/07/29 06:20:18;;;;;;;1.88;1.20;;;;;;;;;;5020785;28;20040;-77
2023/07/29 06:22:44;;;;;;;1.40;1.00;;;;;;;;;;5038254;28;20023;-78
2023/07/29 06:25:11;;;;;;;1.73;1.60;;;;;;;;;;5003714;28;20375;-78
2023/07/29 06:27:37;;;;;;;2.63;1.42;;;;;;;;;;5019278;28;20046;-77
2023/07/29 06:30:08;;;;;;;3.72;1.60;;;;;;;;;;5020634;28;20056;-78
2023/07/29 06:32:38;;;;;;;3.50;1.70;;;;;;;;;;5020653;28;20094;-79
2023/07/29 06:35:05;;;;;;;1.67;1.58;;;;;;;;;;5020427;28;20063;-78
2023/07/29 06:37:35;;;;;;;2.72;1.60;;;;;;;;;;5039441;28;20021;-78
2023/07/29 06:40:06;;;;;;;1.33;1.23;;;;;;;;;;5020801;28;20041;-77
2023/07/29 06:42:32;;;;;;;1.17;1.08;;;;;;;;;;5039267;28;20402;-77
2023/07/29 06:44:58;;;;;;;1.75;1.25;;;;;;;;;;5037244;28;20117;-78
2023/07/29 06:47:25;;;;;;;1.52;1.40;;;;;;;;;;5039787;28;20057;-78
2023/07/29 06:49:51;;;;;;;2.00;1.38;;;;;;;;;;5022292;28;20120;-76
2023/07/29 06:52:23;;;;;;;1.50;1.20;;;;;;;;;;5022594;28;20418;-76
2023/07/29 06:54:52;;;;;;;1.58;1.00;;;;;;;;;;5026421;28;20033;-78
2023/07/29 06:57:18;;;;;;;8.07;7.18;;;;;;;;;;5025840;28;20080;-77
2023/07/29 06:59:47;;;;;;;1.77;1.40;;;;;;;;;;5043220;28;20025;-79
2023/07/29 07:02:32;;;;;;;1.48;1.00;;;;;;;;;;5025167;28;20041;-78
2023/07/29 07:05:17;;;;;;;2.83;1.52;;;;;;;;;;5043602;28;20028;-79
2023/07/29 07:07:47;;;;;;;1.70;1.52;;;;;;;;;;5024755;28;20029;-78
2023/07/29 07:10:21;;;;;;;1.50;1.30;;;;;;;;;;5026117;28;20021;-77
2023/07/29 07:13:02;;;;;;;2.90;1.27;;;;;;;;;;5027894;28;20017;-77
2023/07/29 07:15:29;;;;;;;;;;;;;;;;;;5028864;28;20489;-76
2023/07/29 07:17:59;;;;;;;1.73;1.27;;;;;;;;;;5026168;28;19967;-78
2023/07/29 07:20:42;;;;;;;1.50;1.20;;;;;;;;;;5027461;28;20128;-77
2023/07/29 07:23:11;;;;;;;2.78;1.10;;;;;;;;;;5028780;28;20524;-78
2023/07/29 07:25:50;;;;;;;1.42;1.30;;;;;;;;;;5029625;28;20125;-77
2023/07/29 07:28:29;;;;;;;1.48;1.10;;;;;;;;;;5029756;28;20069;-78
2023/07/29 07:31:01;;;;;;;1.30;1.20;;;;;;;;;;5028842;28;20037;-77
2023/07/29 07:33:28;;;;;;;1.85;1.35;;;;;;;;;;5044675;28;20034;-76
2023/07/29 07:36:00;;;;;;;1.25;0.93;;;;;;;;;;5045214;28;20029;-77
2023/07/29 07:38:39;;;;;;;2.58;1.40;;;;;;;;;;5045775;28;20021;-77
2023/07/29 07:41:11;;;;;;;1.77;1.50;;;;;;;;;;5044922;28;20033;-77
2023/07/29 07:43:42;;;;;;;1.20;1.10;;;;;;;;;;5043260;28;20037;-79
2023/07/29 07:46:11;;;;;;;1.17;0.98;;;;;;;;;;5045722;28;20040;-78
2023/07/29 07:48:44;;;;;;;1.00;0.90;;;;;;;;;;5045827;28;20018;-76
2023/07/29 07:51:22;;;;;;;1.17;1.08;;;;;;;;;;5043724;28;20524;-75
2023/07/29 07:54:02;;;;;;;1.08;1.02;;;;;;;;;;5043372;28;20032;-78
2023/07/29 07:56:44;;;;;;;2.05;1.38;;;;;;;;;;5043871;28;20102;-77
2023/07/29 07:59:23;;;;;;;4.70;1.60;;;;;;;;;;5043570;28;20037;-78
2023/07/29 08:02:13;;;;;;;3.55;1.27;;;;;;;;;;5043092;28;20040;-77
2023/07/29 08:04:43;;;;;;;1.23;1.13;;;;;;;;;;5042472;28;20037;-77
2023/07/29 08:07:18;;;;;;;2.85;1.20;;;;;;;;;;5043825;28;20033;-78
2023/07/29 08:09:55;;;;;;;1.23;1.02;;;;;;;;;;5045322;28;20045;-76
2023/07/29 08:12:31;;;;;;;1.70;1.30;;;;;;;;;;5044484;28;20513;-78
2023/07/29 08:15:14;;;;;;;1.83;1.20;;;;;;;;;;5044343;28;20021;-78
2023/07/29 08:17:45;;;;;;;0.80;0.80;;;;;;;;;;5044899;28;20029;-77
2023/07/29 08:20:18;;;;;;;1.00;1.00;;;;;;;;;;5044302;28;20025;-78
2023/07/29 08:22:47;;;;;;;0.60;0.60;;;;;;;;;;5043353;28;20036;-78
2023/07/29 08:25:23;;;;;;;1.23;0.90;;;;;;;;;;5044495;28;20081;-79
2023/07/29 08:27:50;;;;;;;1.27;0.80;;;;;;;;;;5048188;28;20025;-77
2023/07/29 08:30:29;;;;;;;1.42;1.20;;;;;;;;;;5050666;28;20033;-77
2023/07/29 08:33:00;;;;;;;1.75;0.93;;;;;;;;;;5033466;28;20025;-76
2023/07/29 08:35:34;;;;;;;0.70;0.70;;;;;;;;;;5033152;28;20060;-79
2023/07/29 08:38:04;;;;;;;1.73;0.80;;;;;;;;;;5044151;28;20283;-77
2023/07/29 08:41:05;;;;;;;1.13;0.80;;;;;;;;;;5026226;28;20025;-77
2023/07/29 08:43:33;;;;;;;0.57;0.57;;;;;;;;;;5016135;28;20025;-77
2023/07/29 08:45:59;;;;;;;1.00;1.00;;;;;;;;;;5016843;28;20033;-78
2023/07/29 08:48:43;;;;;;;1.08;0.98;;;;;;;;;;5036778;28;20079;-79
2023/07/29 08:51:10;;;;;;;0.73;0.73;;;;;;;;;;5037094;28;20025;-78
2023/07/29 08:53:37;;;;;;;1.90;0.88;;;;;;;;;;5037669;28;20104;-77
2023/07/29 08:56:05;;;;;;;0.93;0.93;;;;;;;;;;5038801;28;20029;-78
2023/07/29 08:58:45;;;;;;;2.25;0.98;;;;;;;;;;5041633;28;20029;-76
2023/07/29 09:01:19;;;;;;;3.97;1.02;;;;;;;;;;5042501;28;20040;-78
2023/07/29 09:03:45;;;;;;;1.77;1.10;;;;;;;;;;5024725;28;20033;-77
2023/07/29 09:06:32;;;;;;;1.08;0.90;;;;;;;;;;5025073;28;20030;-78
2023/07/29 09:09:02;;;;;;;1.33;1.23;;;;;;;;;;5040832;28;20409;-80
2023/07/29 09:11:33;;;;;;;1.67;1.00;;;;;;;;;;5039572;28;20056;-78
2023/07/29 09:14:01;;;;;;;1.20;1.10;;;;;;;;;;5041143;28;20025;-77
2023/07/29 09:16:27;;;;;;;2.00;1.00;;;;;;;;;;5041722;28;20030;-77
2023/07/29 09:18:55;;;;;;;1.77;1.05;;;;;;;;;;5023246;28;20107;-78
2023/07/29 09:21:32;;;;;;;1.00;1.00;;;;;;;;;;5041064;28;20100;-79
2023/07/29 09:24:13;;;;;;;1.33;0.90;;;;;;;;;;5023343;28;20025;-78
2023/07/29 09:26:48;;;;;;;0.90;0.90;;;;;;;;;;5024914;28;20025;-77
2023/07/29 09:29:14;;;;;;;1.15;0.95;;;;;;;;;;5032482;28;20052;-80
2023/07/29 09:31:42;;;;;;;1.85;1.48;;;;;;;;;;5041371;28;20029;-77
2023/07/29 09:34:16;;;;;;;1.40;1.23;;;;;;;;;;5040109;28;20049;-77
2023/07/29 09:36:51;;;;;;;1.05;0.90;;;;;;;;;;5040024;28;20025;-77
2023/07/29 09:39:24;;;;;;;0.80;0.80;;;;;;;;;;5038918;28;20408;-78
2023/07/29 09:41:54;;;;;;;1.13;1.02;;;;;;;;;;5039903;28;20590;-80
2023/07/29 09:44:21;;;;;;;2.38;1.45;;;;;;;;;;5040573;28;20095;-77
2023/07/29 09:46:50;;;;;;;1.10;1.00;;;;;;;;;;5039996;28;20053;-79
2023/07/29 09:49:17;;;;;;;0.98;0.82;;;;;;;;;;5023110;28;20057;-77
2023/07/29 09:51:42;;;;;;;2.15;0.95;;;;;;;;;;5038680;28;20451;-78
2023/07/29 09:54:13;;;;;;;0.77;0.68;;;;;;;;;;5038178;28;20036;-79
2023/07/29 09:56:44;;;;;;;1.33;1.08;;;;;;;;;;5040864;28;20029;-79
2023/07/29 09:59:12;;;;;;;1.17;0.75;;;;;;;;;;5040568;28;20026;-78
2023/07/29 10:01:42;;;;;;;1.25;0.90;;;;;;;;;;5039001;28;20041;-78
2023/07/29 10:04:09;;;;;;;3.20;0.88;;;;;;;;;;5040967;28;20029;-78
2023/07/29 10:06:37;;;;;;;1.35;1.00;;;;;;;;;;5040062;28;20519;-79
2023/07/29 10:09:09;;;;;;;0.63;0.63;;;;;;;;;;5039300;28;20044;-77
2023/07/29 10:11:36;;;;;;;2.53;0.80;;;;;;;;;;5039626;28;20075;-78
2023/07/29 10:14:04;;;;;;;0.65;0.65;;;;;;;;;;5038273;28;20060;-78
2023/07/29 10:16:32;;;;;;;0.77;0.77;;;;;;;;;;5039683;28;20029;-76
2023/07/29 10:18:59;;;;;;;4.00;1.00;;;;;;;;;;5039048;28;20124;-79
2023/07/29 10:21:31;;;;;;;1.48;0.82;;;;;;;;;;5039315;28;20021;-76
2023/07/29 10:24:08;;;;;;;1.10;0.88;;;;;;;;;;5039872;28;20116;-76
2023/07/29 10:26:37;;;;;;;1.70;0.93;;;;;;;;;;5040076;28;20029;-78
2023/07/29 10:29:24;;;;;;;1.17;1.00;;;;;;;;;;5038289;28;20047;-77
2023/07/29 10:31:58;;;;;;;2.88;1.20;;;;;;;;;;5040965;28;20055;-77
2023/07/29 10:34:25;;;;;;;1.10;1.00;;;;;;;;;;5057245;28;20041;-77
2023/07/29 10:36:59;;;;;;;0.90;0.73;;;;;;;;;;5041448;28;20037;-77
2023/07/29 10:39:40;;;;;;;3.78;1.02;;;;;;;;;;5041183;28;20041;-77
2023/07/29 10:42:11;;;;;;;0.52;0.52;;;;;;;;;;5039810;28;20033;-78
2023/07/29 10:44:55;;;;;;;;;;;;;;;;;;5041127;28;20072;-79
2023/07/29 10:47:45;;;;;;;1.00;0.73;;;;;;;;;;5041501;28;19909;-80
2023/07/29 10:50:28;;;;;;;2.80;0.85;;;;;;;;;;5043121;28;20032;-78
2023/07/29 10:53:03;;;;;;;2.40;0.75;;;;;;;;;;5041349;28;20036;-79
2023/07/29 10:55:44;;;;;;;1.73;0.68;;;;;;;;;;5043096;28;20087;-78
2023/07/29 10:58:17;;;;;;;1.15;1.05;;;;;;;;;;5038456;28;20035;-79
2023/07/29 11:00:49;;;;;;;1.05;0.95;;;;;;;;;;5040143;28;20048;-79
2023/07/29 11:03:23;;;;;;;1.92;1.20;;;;;;;;;;5040680;28;20645;-79
2023/07/29 11:05:52;;;;;;;1.92;1.10;;;;;;;;;;5030566;28;20021;-78
2023/07/29 11:08:51;;;;;;;;;;;;;;;;;;;;;
2023/07/29 11:11:19;;;;;;;2.22;1.20;;;;;;;;;;5041945;28;20117;-79
2023/07/29 11:13:48;;;;;;;3.90;2.70;;;;;;;;;;5039133;28;20117;-77
2023/07/29 11:16:17;;;;;;;2.90;0.80;;;;;;;;;;5039157;28;20641;-78
2023/07/29 11:18:47;;;;;;;4.22;1.00;;;;;;;;;;5040428;28;20034;-77
2023/07/29 11:21:14;;;;;;;4.75;1.40;;;;;;;;;;5041587;28;20496;-78
2023/07/29 11:23:40;;;;;;;3.50;1.40;;;;;;;;;;5040183;28;20059;-79
2023/07/29 11:26:15;;;;;;;20.20;2.60;;;;;;;;;;5041064;28;20033;-78
2023/07/29 11:28:43;;;;;;;4.68;1.20;;;;;;;;;;5040788;28;20046;-79
2023/07/29 11:31:14;;;;;;;5.40;1.08;;;;;;;;;;5041805;28;20065;-79
2023/07/29 11:33:41;;;;;;;1.75;0.90;;;;;;;;;;5040013;28;20036;-76
2023/07/29 11:36:19;;;;;;;5.68;1.48;;;;;;;;;;5037743;28;20040;-76
2023/07/29 11:38:51;;;;;;;4.18;0.90;;;;;;;;;;5037662;28;20056;-77
2023/07/29 11:41:21;;;;;;;4.63;1.20;;;;;;;;;;5036289;28;20036;-77
2023/07/29 11:43:49;;;;;;;3.00;1.00;;;;;;;;;;5038176;28;20109;-76
2023/07/29 11:46:23;;;;;;;2.63;1.20;;;;;;;;;;5037750;28;20049;-76
2023/07/29 11:48:50;;;;;;;0.98;0.80;;;;;;;;;;5036396;28;20022;-77
2023/07/29 11:51:17;;;;;;;8.13;1.75;;;;;;;;;;5039219;28;20456;-76
2023/07/29 11:53:48;;;;;;;4.25;1.98;;;;;;;;;;5038186;28;20030;-74
2023/07/29 11:56:24;;;;;;;2.05;0.88;;;;;;;;;;5025457;28;20037;-76
2023/07/29 11:58:55;;;;;;;4.32;1.27;;;;;;;;;;5043905;28;20048;-74
2023/07/29 12:01:23;;;;;;;3.08;1.40;;;;;;;;;;5040796;28;20034;-76
2023/07/29 12:03:50;;;;;;;2.03;1.13;;;;;;;;;;5040850;28;20055;-76
2023/07/29 12:06:17;;;;;;;4.97;1.30;;;;;;;;;;5039277;28;20021;-77
2023/07/29 12:08:45;;;;;;;3.92;1.83;;;;;;;;;;5022529;28;20026;-76
2023/07/29 12:11:11;;;;;;;3.08;1.10;;;;;;;;;;5039260;28;20021;-76
2023/07/29 12:13:41;;;;;;;5.40;1.13;;;;;;;;;;5041185;28;20025;-74
2023/07/29 12:16:08;;;;;;;3.25;1.55;;;;;;;;;;5038157;28;20097;-76
2023/07/29 12:18:33;;;;;;;3.15;1.33;;;;;;;;;;5039854;28;20068;-75
2023/07/29 12:21:03;;;;;;;5.50;1.10;;;;;;;;;;5038382;28;20025;-76
2023/07/29 12:23:33;;;;;;;2.13;1.13;;;;;;;;;;5039461;28;20084;-77
2023/07/29 12:26:03;;;;;;;3.60;1.33;;;;;;;;;;5039936;28;20036;-77
2023/07/29 12:28:33;;;;;;;2.05;1.10;;;;;;;;;;5022824;28;20072;-75
2023/07/29 12:30:59;;;;;;;2.63;0.90;;;;;;;;;;5022992;28;20055;-77
2023/07/29 12:33:39;;;;;;;2.25;1.20;;;;;;;;;;5039730;28;20044;-76
2023/07/29 12:36:16;;;;;;;3.53;1.17;;;;;;;;;;5040133;28;20156;-76
2023/07/29 12:38:44;;;;;;;5.35;1.05;;;;;;;;;;5039785;28;20026;-75
2023/07/29 12:41:10;;;;;;;2.67;1.05;;;;;;;;;;5041198;28;20099;-76
2023/07/29 12:43:37;;;;;;;2.60;0.90;;;;;;;;;;5042310;28;20036;-76
2023/07/29 12:46:09;;;;;;;5.95;0.98;;;;;;;;;;5042666;28;20369;-75
2023/07/29 12:48:38;;;;;;;1.25;1.00;;;;;;;;;;5044969;28;20044;-74
2023/07/29 12:51:04;;;;;;;3.30;0.80;;;;;;;;;;5046567;28;20045;-77
2023/07/29 12:53:30;;;;;;;1.67;0.90;;;;;;;;;;5042787;28;20033;-75
2023/07/29 12:56:08;;;;;;;1.33;1.02;;;;;;;;;;5039687;28;20025;-75
2023/07/29 12:58:41;;;;;;;2.78;0.90;;;;;;;;;;5039979;28;20498;-76
2023/07/29 13:01:26;;;;;;;2.03;1.00;;;;;;;;;;5040956;28;20691;-76
2023/07/29 13:03:53;;;;;;;3.63;1.08;;;;;;;;;;5039362;28;20543;-77
2023/07/29 13:06:26;;;;;;;3.72;1.45;;;;;;;;;;5041045;28;20056;-76
2023/07/29 13:08:52;;;;;;;2.35;0.85;;;;;;;;;;5039686;28;20387;-77
2023/07/29 13:11:23;;;;;;;1.25;0.90;;;;;;;;;;5039408;28;20026;-76
2023/07/29 13:13:56;;;;;;;1.73;1.08;;;;;;;;;;5039379;28;20029;-77
2023/07/29 13:16:24;;;;;;;1.77;1.27;;;;;;;;;;5037975;28;20029;-77
2023/07/29 13:18:53;;;;;;;1.10;0.88;;;;;;;;;;5021370;28;20489;-77
2023/07/29 13:21:19;;;;;;;2.78;1.50;;;;;;;;;;5036946;28;20084;-78
2023/07/29 13:23:44;;;;;;;2.20;1.42;;;;;;;;;;5037826;28;20041;-76
2023/07/29 13:26:11;;;;;;;4.00;1.40;;;;;;;;;;5037481;28;20026;-77
2023/07/29 13:28:39;;;;;;;4.88;1.20;;;;;;;;;;5038805;28;20118;-76
2023/07/29 13:31:09;;;;;;;0.90;0.90;;;;;;;;;;5039094;28;20037;-75
2023/07/29 13:33:35;;;;;;;1.58;1.10;;;;;;;;;;5005117;28;20434;-76
2023/07/29 13:36:04;;;;;;;0.75;0.65;;;;;;;;;;5020897;28;20043;-78
2023/07/29 13:38:33;;;;;;;3.03;0.75;;;;;;;;;;5038585;28;20025;-77
2023/07/29 13:41:00;;;;;;;1.65;0.85;;;;;;;;;;5037977;28;20021;-78
2023/07/29 13:43:26;;;;;;;1.20;0.77;;;;;;;;;;5038686;28;20037;-77
2023/07/29 13:45:53;;;;;;;1.63;0.82;;;;;;;;;;5021069;28;20521;-77
2023/07/29 13:48:22;;;;;;;3.65;1.23;;;;;;;;;;5020052;28;20032;-76
2023/07/29 13:50:48;;;;;;;1.63;0.50;;;;;;;;;;5038314;28;20025;-77
2023/07/29 13:53:16;;;;;;;1.00;1.00;;;;;;;;;;5038444;28;20081;-77
2023/07/29 13:55:42;;;;;;;2.42;1.20;;;;;;;;;;5018998;28;20083;-78
2023/07/29 13:58:11;;;;;;;0.73;0.73;;;;;;;;;;5020105;28;20120;-77
2023/07/29 14:00:38;;;;;;;3.80;0.88;;;;;;;;;;5018903;28;20029;-77
2023/07/29 14:03:04;;;;;;;1.20;0.65;;;;;;;;;;5019484;28;20112;-76
2023/07/29 14:05:30;;;;;;;0.82;0.52;;;;;;;;;;5020093;28;20114;-75
2023/07/29 14:07:57;;;;;;;1.27;0.82;;;;;;;;;;5039051;28;20307;-77
2023/07/29 14:10:27;;;;;;;1.05;0.50;;;;;;;;;;5020542;28;20107;-78
2023/07/29 14:12:53;;;;;;;2.75;0.85;;;;;;;;;;5037240;28;20033;-76
2023/07/29 14:15:24;;;;;;;1.10;0.60;;;;;;;;;;5020092;28;20021;-78
2023/07/29 14:17:50;;;;;;;1.25;0.80;;;;;;;;;;5020914;28;20029;-77
2023/07/29 14:20:16;;;;;;;1.10;0.80;;;;;;;;;;5019281;28;20159;-78
2023/07/29 14:22:43;;;;;;;1.90;0.70;;;;;;;;;;5037372;28;20045;-78
2023/07/29 14:25:11;;;;;;;1.02;0.65;;;;;;;;;;5035865;28;20033;-76
2023/07/29 14:27:42;;;;;;;0.50;0.50;;;;;;;;;;5037605;28;20029;-77
2023/07/29 14:30:08;;;;;;;1.25;0.40;;;;;;;;;;5037923;28;20046;-77
2023/07/29 14:32:43;;;;;;;0.77;0.57;;;;;;;;;;5037429;28;20026;-76
2023/07/29 14:35:10;;;;;;;0.73;0.50;;;;;;;;;;5020785;28;20030;-77
2023/07/29 14:37:46;;;;;;;0.80;0.80;;;;;;;;;;5019858;28;20029;-78
2023/07/29 14:40:12;;;;;;;0.82;0.63;;;;;;;;;;5038042;28;20029;-77
2023/07/29 14:42:40;;;;;;;1.50;0.57;;;;;;;;;;5037119;28;20021;-76
2023/07/29 14:45:09;;;;;;;1.50;0.73;;;;;;;;;;5037416;28;20030;-77
2023/07/29 14:47:34;;;;;;;1.13;0.75;;;;;;;;;;5004803;28;20038;-76
2023/07/29 14:50:03;;;;;;;0.95;0.60;;;;;;;;;;5042013;28;20393;-78
2023/07/29 14:52:38;;;;;;;1.23;0.60;;;;;;;;;;5041226;28;20531;-76
2023/07/29 14:55:18;;;;;;;1.52;1.20;;;;;;;;;;5041336;28;20282;-75
2023/07/29 14:57:56;;;;;;;0.75;0.60;;;;;;;;;;5040654;28;20056;-76